Terminal Aerodrome Forecast
Issued by NWS

Home | Current Version | Previous Version | Text Only | Print | Product List | Glossary On
Versions: 1 2 3 4 5 6 7 8 9 10 11 12 13 14 15 16
000
FTUS46 KMTR 300535
TAFSJC
TAF
KSJC 300535Z 3006/3106 31010KT P6SM FEW001 BKN014 BKN025
     FM301500 30006KT P6SM BKN010 OVC015
     FM302100 32011KT P6SM FEW010 SCT180=

USA.gov is the U.S. government's official web portal to all federal, state and local government web resources and services.